Time;durP1;ratioP1;P1;durP2;ratioP2;P2;SDS_P1;SDS_P2;PMS_P1;PMS_P2;Temp;Humidity;BMP_temperature;BMP_pressure;BME280_temperature;BME280_humidity;BME280_pressure;Samples;Min_cycle;Max_cycle;Signal;HPM_P1;HPM_P2
2021/01/16 00:01:26;;;;;;;15.80;6.67;;;;;;;;;;743031;186;2693177;-71
2021/01/16 00:03:52;;;;;;;14.57;6.67;;;;;;;;;;748176;185;919083;-72
2021/01/16 00:06:28;;;;;;;11.75;6.22;;;;;;;;;;742772;186;922319;-72
2021/01/16 00:08:44;;;;;;;7.83;5.00;;;;;;;;;;748139;186;919399;-71
2021/01/16 00:11:09;;;;;;;12.97;6.53;;;;;;;;;;744840;186;918716;-72
2021/01/16 00:13:35;;;;;;;17.55;10.43;;;;;;;;;;744995;185;919347;-72
2021/01/16 00:16:01;;;;;;;14.20;7.50;;;;;;;;;;749259;186;918838;-71
2021/01/16 00:18:27;;;;;;;12.60;5.97;;;;;;;;;;749023;184;920148;-72
2021/01/16 00:20:53;;;;;;;13.57;5.47;;;;;;;;;;745169;186;918845;-70
2021/01/16 00:23:19;;;;;;;14.43;5.87;;;;;;;;;;744887;187;932829;-72
2021/01/16 00:25:44;;;;;;;8.97;5.67;;;;;;;;;;740454;186;932098;-71
2021/01/16 00:28:15;;;;;;;12.45;6.97;;;;;;;;;;729460;190;1007437;-71
2021/01/16 00:30:41;;;;;;;10.80;5.43;;;;;;;;;;732892;190;919775;-71
2021/01/16 00:33:07;;;;;;;10.10;6.27;;;;;;;;;;735865;190;918854;-71
2021/01/16 00:35:33;;;;;;;9.47;6.20;;;;;;;;;;733563;190;919190;-71
2021/01/16 00:37:58;;;;;;;17.65;6.65;;;;;;;;;;731009;190;918725;-72
2021/01/16 00:40:24;;;;;;;10.70;6.20;;;;;;;;;;742157;186;919150;-72
2021/01/16 00:42:50;;;;;;;9.13;6.70;;;;;;;;;;744166;184;919254;-71
2021/01/16 00:45:16;;;;;;;11.17;7.17;;;;;;;;;;743788;185;1029553;-71
2021/01/16 00:47:42;;;;;;;12.37;7.03;;;;;;;;;;742938;186;966644;-72
2021/01/16 00:50:08;;;;;;;14.47;6.40;;;;;;;;;;750369;186;919396;-72
2021/01/16 00:52:34;;;;;;;10.70;5.00;;;;;;;;;;745436;186;919649;-71
2021/01/16 00:55:00;;;;;;;10.27;6.50;;;;;;;;;;745622;186;918827;-71
2021/01/16 00:57:26;;;;;;;11.80;7.10;;;;;;;;;;748381;186;919053;-72
2021/01/16 00:59:51;;;;;;;13.13;6.73;;;;;;;;;;749796;185;919288;-71
2021/01/16 01:02:18;;;;;;;11.03;6.30;;;;;;;;;;746897;186;918448;-71
2021/01/16 01:04:44;;;;;;;12.23;6.40;;;;;;;;;;750734;186;935052;-70
2021/01/16 01:07:10;;;;;;;12.40;6.70;;;;;;;;;;743888;186;918266;-71
2021/01/16 01:09:36;;;;;;;11.47;7.30;;;;;;;;;;743887;185;925295;-71
2021/01/16 01:12:02;;;;;;;8.63;5.67;;;;;;;;;;745957;186;915789;-71
2021/01/16 01:14:27;;;;;;;11.67;6.03;;;;;;;;;;744147;187;914338;-72
2021/01/16 01:16:53;;;;;;;11.13;6.87;;;;;;;;;;750642;184;915496;-71
2021/01/16 01:19:19;;;;;;;14.60;6.50;;;;;;;;;;748846;184;911757;-71
2021/01/16 01:21:45;;;;;;;9.98;5.68;;;;;;;;;;760378;183;918310;-72
2021/01/16 01:24:11;;;;;;;7.63;5.30;;;;;;;;;;750214;184;913806;-71
2021/01/16 01:26:37;;;;;;;14.40;9.50;;;;;;;;;;753040;184;919986;-71
2021/01/16 01:29:02;;;;;;;12.67;7.07;;;;;;;;;;754050;185;918069;-72
2021/01/16 01:31:28;;;;;;;11.93;6.70;;;;;;;;;;749094;184;919930;-72
2021/01/16 01:33:54;;;;;;;11.13;6.20;;;;;;;;;;746211;184;918007;-72
2021/01/16 01:36:20;;;;;;;13.60;8.20;;;;;;;;;;754913;185;918823;-71
2021/01/16 01:38:46;;;;;;;12.93;7.43;;;;;;;;;;745616;185;915702;-71
2021/01/16 01:41:12;;;;;;;16.77;10.00;;;;;;;;;;747044;185;916249;-71
2021/01/16 01:43:38;;;;;;;19.13;8.83;;;;;;;;;;753892;184;921347;-73
2021/01/16 01:46:04;;;;;;;13.53;8.00;;;;;;;;;;754211;184;919194;-72
2021/01/16 01:48:31;;;;;;;13.43;7.27;;;;;;;;;;753789;184;918821;-71
2021/01/16 01:50:56;;;;;;;21.77;11.93;;;;;;;;;;749541;184;917781;-71
2021/01/16 01:53:21;;;;;;;16.83;9.47;;;;;;;;;;758385;184;917980;-72
2021/01/16 01:55:47;;;;;;;12.30;8.90;;;;;;;;;;748128;184;918010;-71
2021/01/16 01:58:13;;;;;;;13.00;8.20;;;;;;;;;;749527;184;919131;-72
2021/01/16 02:00:39;;;;;;;10.17;7.27;;;;;;;;;;752768;184;922657;-71
2021/01/16 02:03:05;;;;;;;19.07;10.20;;;;;;;;;;749206;185;919033;-72
2021/01/16 02:05:31;;;;;;;17.10;9.20;;;;;;;;;;750298;184;919088;-72
2021/01/16 02:07:57;;;;;;;17.73;9.47;;;;;;;;;;750598;185;948848;-71
2021/01/16 02:10:23;;;;;;;15.70;8.07;;;;;;;;;;749517;185;918996;-72
2021/01/16 02:12:51;;;;;;;10.70;6.70;;;;;;;;;;754150;184;922744;-72
2021/01/16 02:15:15;;;;;;;13.10;6.80;;;;;;;;;;745075;183;919361;-69
2021/01/16 02:17:41;;;;;;;11.33;6.97;;;;;;;;;;750867;185;919369;-72
2021/01/16 02:20:11;;;;;;;12.55;6.15;;;;;;;;;;750342;184;918893;-72
2021/01/16 02:22:37;;;;;;;10.50;5.50;;;;;;;;;;749085;183;919267;-73
2021/01/16 02:25:09;;;;;;;8.03;5.37;;;;;;;;;;755823;184;918970;-72
2021/01/16 02:27:35;;;;;;;11.80;6.13;;;;;;;;;;754322;184;918827;-72
2021/01/16 02:30:01;;;;;;;9.60;6.53;;;;;;;;;;754805;184;1021109;-70
2021/01/16 02:32:27;;;;;;;10.90;6.17;;;;;;;;;;749902;185;918861;-72
2021/01/16 02:34:52;;;;;;;11.80;6.63;;;;;;;;;;754961;184;918608;-71
2021/01/16 02:37:23;;;;;;;12.93;6.55;;;;;;;;;;747552;184;942418;-72
2021/01/16 02:39:50;;;;;;;12.37;7.10;;;;;;;;;;751727;184;918790;-72
2021/01/16 02:42:31;;;;;;;13.33;7.27;;;;;;;;;;745628;185;918174;-72
2021/01/16 02:44:59;;;;;;;10.48;6.60;;;;;;;;;;743892;184;918186;-72
2021/01/16 02:47:26;;;;;;;12.70;8.10;;;;;;;;;;750629;185;921374;-72
2021/01/16 02:49:51;;;;;;;15.70;9.40;;;;;;;;;;752619;184;918469;-71
2021/01/16 02:52:18;;;;;;;17.40;9.52;;;;;;;;;;748256;184;919018;-72
2021/01/16 02:54:44;;;;;;;14.73;8.67;;;;;;;;;;758504;184;918181;-72
2021/01/16 02:57:10;;;;;;;20.10;13.25;;;;;;;;;;748888;184;919445;-72
2021/01/16 02:59:36;;;;;;;14.77;8.30;;;;;;;;;;749529;184;919614;-71
2021/01/16 03:02:02;;;;;;;15.10;8.27;;;;;;;;;;752581;185;920547;-74
2021/01/16 03:04:28;;;;;;;14.73;8.53;;;;;;;;;;753979;183;919362;-72
2021/01/16 03:06:54;;;;;;;8.27;5.60;;;;;;;;;;752818;184;916163;-71
2021/01/16 03:09:20;;;;;;;13.60;8.30;;;;;;;;;;747652;184;915236;-72
2021/01/16 03:11:46;;;;;;;13.07;7.60;;;;;;;;;;751646;185;912477;-71
2021/01/16 03:14:12;;;;;;;12.35;6.97;;;;;;;;;;747655;184;918825;-71
2021/01/16 03:16:38;;;;;;;12.83;7.37;;;;;;;;;;749538;185;927880;-72
2021/01/16 03:19:04;;;;;;;8.77;5.80;;;;;;;;;;749840;184;908180;-71
2021/01/16 03:21:30;;;;;;;11.67;6.37;;;;;;;;;;747577;185;918278;-71
2021/01/16 03:23:56;;;;;;;11.73;6.77;;;;;;;;;;740684;183;2357571;-71
2021/01/16 03:26:22;;;;;;;12.03;6.33;;;;;;;;;;755842;183;920411;-72
2021/01/16 03:28:47;;;;;;;15.00;7.80;;;;;;;;;;752312;184;919023;-72
2021/01/16 03:31:13;;;;;;;13.97;8.00;;;;;;;;;;753120;183;919176;-72
2021/01/16 03:33:39;;;;;;;15.60;8.17;;;;;;;;;;750086;184;918456;-71
2021/01/16 03:36:05;;;;;;;11.47;6.10;;;;;;;;;;751575;185;918954;-72
2021/01/16 03:38:31;;;;;;;12.10;6.77;;;;;;;;;;745874;184;918620;-72
2021/01/16 03:40:57;;;;;;;10.03;6.43;;;;;;;;;;750368;184;918441;-71
2021/01/16 03:43:23;;;;;;;15.43;6.00;;;;;;;;;;754102;185;970430;-72
2021/01/16 03:45:49;;;;;;;8.77;6.70;;;;;;;;;;749408;182;922754;-72
2021/01/16 03:48:15;;;;;;;9.10;5.20;;;;;;;;;;750934;185;919211;-72
2021/01/16 03:50:40;;;;;;;12.10;6.43;;;;;;;;;;754977;184;1014668;-72
2021/01/16 03:53:06;;;;;;;10.80;5.90;;;;;;;;;;754381;185;915157;-71
2021/01/16 03:55:32;;;;;;;14.13;5.70;;;;;;;;;;749745;184;916412;-71
2021/01/16 03:57:58;;;;;;;11.12;6.07;;;;;;;;;;754643;184;918968;-70
2021/01/16 04:00:24;;;;;;;9.07;5.20;;;;;;;;;;746494;186;918943;-72
2021/01/16 04:02:50;;;;;;;9.73;5.20;;;;;;;;;;749418;185;935789;-72
2021/01/16 04:05:16;;;;;;;14.40;8.10;;;;;;;;;;744602;184;1681904;-71
2021/01/16 04:07:42;;;;;;;15.20;8.13;;;;;;;;;;754474;185;918925;-72
2021/01/16 04:10:08;;;;;;;17.65;7.43;;;;;;;;;;747548;183;918470;-71
2021/01/16 04:12:33;;;;;;;14.57;9.03;;;;;;;;;;747314;184;918389;-71
2021/01/16 04:15:01;;;;;;;13.60;8.20;;;;;;;;;;751269;184;918023;-72
2021/01/16 04:17:25;;;;;;;15.57;8.40;;;;;;;;;;747513;184;919356;-72
2021/01/16 04:19:51;;;;;;;12.47;8.30;;;;;;;;;;746739;185;918991;-71
2021/01/16 04:22:17;;;;;;;13.70;7.43;;;;;;;;;;754939;184;918705;-72
2021/01/16 04:24:43;;;;;;;11.27;6.28;;;;;;;;;;746902;185;918545;-71
2021/01/16 04:27:08;;;;;;;11.10;5.87;;;;;;;;;;748422;184;919101;-72
2021/01/16 04:29:34;;;;;;;10.33;5.80;;;;;;;;;;750342;184;918598;-70
2021/01/16 04:32:00;;;;;;;8.20;5.77;;;;;;;;;;729478;185;4523820;-71
2021/01/16 04:34:26;;;;;;;10.50;5.33;;;;;;;;;;749510;184;918725;-72
2021/01/16 04:36:52;;;;;;;10.23;5.23;;;;;;;;;;746497;184;918636;-72
2021/01/16 04:39:18;;;;;;;10.17;4.90;;;;;;;;;;756845;183;919073;-71
2021/01/16 04:41:44;;;;;;;10.50;5.57;;;;;;;;;;746722;185;918020;-71
2021/01/16 04:44:10;;;;;;;10.03;6.70;;;;;;;;;;749992;184;918945;-72
2021/01/16 04:46:36;;;;;;;9.20;4.90;;;;;;;;;;753780;184;916654;-72
2021/01/16 04:49:02;;;;;;;9.60;5.47;;;;;;;;;;750727;184;919054;-71
2021/01/16 04:51:32;;;;;;;11.00;6.07;;;;;;;;;;749430;183;950694;-71
2021/01/16 04:53:57;;;;;;;13.03;7.13;;;;;;;;;;752370;184;919509;-72
2021/01/16 04:56:25;;;;;;;12.00;6.75;;;;;;;;;;755404;184;918346;-71
2021/01/16 04:58:51;;;;;;;14.70;8.20;;;;;;;;;;743575;181;1803669;-72
2021/01/16 05:01:16;;;;;;;16.33;9.27;;;;;;;;;;749073;184;918265;-72
2021/01/16 05:03:42;;;;;;;12.20;7.47;;;;;;;;;;751278;184;918221;-72
2021/01/16 05:06:08;;;;;;;13.40;8.20;;;;;;;;;;752642;184;917968;-71
2021/01/16 05:08:34;;;;;;;13.20;7.90;;;;;;;;;;748220;184;918703;-71
2021/01/16 05:11:00;;;;;;;17.45;9.82;;;;;;;;;;755854;184;915808;-71
2021/01/16 05:13:26;;;;;;;18.17;10.17;;;;;;;;;;748426;185;992687;-72
2021/01/16 05:15:52;;;;;;;17.13;9.40;;;;;;;;;;750608;184;918729;-71
2021/01/16 05:18:17;;;;;;;18.43;9.23;;;;;;;;;;744805;185;932987;-70
2021/01/16 05:20:43;;;;;;;20.37;11.20;;;;;;;;;;749491;185;936691;-72
2021/01/16 05:23:12;;;;;;;20.00;10.93;;;;;;;;;;745621;184;918576;-71
2021/01/16 05:25:41;;;;;;;18.73;9.80;;;;;;;;;;747960;184;918532;-72
2021/01/16 05:28:07;;;;;;;16.63;9.00;;;;;;;;;;750144;185;920810;-72
2021/01/16 05:30:32;;;;;;;17.23;9.95;;;;;;;;;;748237;184;918480;-72
2021/01/16 05:32:58;;;;;;;14.87;8.67;;;;;;;;;;746923;185;928294;-71
2021/01/16 05:35:25;;;;;;;15.30;10.17;;;;;;;;;;750162;184;922012;-72
2021/01/16 05:37:51;;;;;;;18.53;11.23;;;;;;;;;;754290;184;917129;-72
2021/01/16 05:40:16;;;;;;;21.83;11.00;;;;;;;;;;746967;184;917103;-72
2021/01/16 05:42:42;;;;;;;21.67;9.33;;;;;;;;;;751127;184;919062;-71
2021/01/16 05:45:09;;;;;;;22.00;10.27;;;;;;;;;;753640;184;919110;-72
2021/01/16 05:47:35;;;;;;;17.87;8.40;;;;;;;;;;753162;183;918906;-73
2021/01/16 05:50:00;;;;;;;19.50;8.85;;;;;;;;;;748980;183;920790;-72
2021/01/16 05:52:26;;;;;;;17.83;9.37;;;;;;;;;;755516;183;918388;-72
2021/01/16 05:54:52;;;;;;;18.45;9.95;;;;;;;;;;748448;184;920231;-72
2021/01/16 05:57:18;;;;;;;18.73;10.57;;;;;;;;;;752641;184;918543;-72
2021/01/16 05:59:44;;;;;;;14.83;8.93;;;;;;;;;;752781;183;1065710;-72
2021/01/16 06:02:09;;;;;;;14.10;8.00;;;;;;;;;;754133;183;919145;-72
2021/01/16 06:04:35;;;;;;;18.08;10.13;;;;;;;;;;746054;184;919077;-71
2021/01/16 06:07:04;;;;;;;14.20;8.37;;;;;;;;;;748463;185;919221;-73
2021/01/16 06:09:30;;;;;;;14.47;9.43;;;;;;;;;;754210;184;919240;-72
2021/01/16 06:11:56;;;;;;;15.50;8.23;;;;;;;;;;753111;184;917373;-72
2021/01/16 06:14:22;;;;;;;13.17;7.73;;;;;;;;;;747838;185;918986;-70
2021/01/16 06:16:49;;;;;;;15.30;8.80;;;;;;;;;;755103;184;918129;-71
2021/01/16 06:19:15;;;;;;;14.40;8.67;;;;;;;;;;752003;183;919520;-71
2021/01/16 06:21:41;;;;;;;16.55;8.93;;;;;;;;;;748926;184;917722;-72
2021/01/16 06:24:07;;;;;;;16.57;9.57;;;;;;;;;;751558;185;918393;-71
2021/01/16 06:26:33;;;;;;;14.65;10.27;;;;;;;;;;751672;185;921404;-71
2021/01/16 06:28:59;;;;;;;17.27;8.97;;;;;;;;;;749864;185;919064;-72
2021/01/16 06:31:24;;;;;;;15.40;10.27;;;;;;;;;;747282;185;919416;-71
2021/01/16 06:33:54;;;;;;;16.27;9.03;;;;;;;;;;757161;184;920001;-72
2021/01/16 06:36:20;;;;;;;21.80;11.23;;;;;;;;;;747843;184;919567;-73
2021/01/16 06:38:46;;;;;;;15.03;9.83;;;;;;;;;;752298;184;911662;-71
2021/01/16 06:41:12;;;;;;;16.50;9.45;;;;;;;;;;753094;184;924635;-73
2021/01/16 06:43:39;;;;;;;23.60;11.00;;;;;;;;;;751577;184;868965;-71
2021/01/16 06:46:06;;;;;;;17.70;10.73;;;;;;;;;;747282;184;940326;-72
2021/01/16 06:48:32;;;;;;;18.47;10.77;;;;;;;;;;751885;183;915299;-72
2021/01/16 06:50:58;;;;;;;18.77;11.80;;;;;;;;;;750740;184;918915;-72
2021/01/16 06:53:24;;;;;;;15.47;10.90;;;;;;;;;;750482;185;914462;-71
2021/01/16 06:55:49;;;;;;;23.07;12.43;;;;;;;;;;750880;183;916446;-71
2021/01/16 06:58:16;;;;;;;21.03;12.77;;;;;;;;;;753922;182;921352;-72
2021/01/16 07:00:42;;;;;;;20.30;12.97;;;;;;;;;;756810;183;824699;-72
2021/01/16 07:03:08;;;;;;;21.53;12.83;;;;;;;;;;755940;184;614525;-72
2021/01/16 07:05:33;;;;;;;18.87;10.57;;;;;;;;;;758954;184;642441;-71
2021/01/16 07:07:59;;;;;;;19.70;11.90;;;;;;;;;;754410;183;635673;-71
2021/01/16 07:10:30;;;;;;;19.07;11.50;;;;;;;;;;756498;183;626026;-71
2021/01/16 07:12:51;;;;;;;23.50;12.27;;;;;;;;;;752848;184;622611;-71
2021/01/16 07:15:17;;;;;;;17.23;10.07;;;;;;;;;;756833;184;636058;-71
2021/01/16 07:17:43;;;;;;;14.60;9.93;;;;;;;;;;751803;184;687080;-72
2021/01/16 07:20:09;;;;;;;18.90;10.87;;;;;;;;;;754560;185;633792;-71
2021/01/16 07:22:37;;;;;;;20.33;11.70;;;;;;;;;;756868;184;626245;-71
2021/01/16 07:25:01;;;;;;;21.33;12.50;;;;;;;;;;756264;184;700985;-72
2021/01/16 07:27:28;;;;;;;29.27;14.50;;;;;;;;;;754328;184;628506;-71
2021/01/16 07:29:55;;;;;;;23.60;14.40;;;;;;;;;;757985;185;618642;-71
2021/01/16 07:32:21;;;;;;;25.40;14.93;;;;;;;;;;753832;183;628638;-69
2021/01/16 07:34:47;;;;;;;23.00;15.07;;;;;;;;;;754289;184;625659;-71
2021/01/16 07:37:13;;;;;;;26.00;16.20;;;;;;;;;;755810;184;626669;-71
2021/01/16 07:39:39;;;;;;;43.60;22.20;;;;;;;;;;754189;185;641596;-71
2021/01/16 07:42:05;;;;;;;48.80;27.07;;;;;;;;;;751734;182;919866;-71
2021/01/16 07:44:31;;;;;;;63.63;30.47;;;;;;;;;;751955;185;618727;-71
2021/01/16 07:46:57;;;;;;;52.80;30.27;;;;;;;;;;758744;185;630485;-70
2021/01/16 07:49:22;;;;;;;43.23;25.70;;;;;;;;;;748734;184;1364304;-70
2021/01/16 07:51:48;;;;;;;55.73;27.10;;;;;;;;;;750578;185;636456;-71
2021/01/16 07:54:14;;;;;;;42.80;23.77;;;;;;;;;;755250;184;643295;-71
2021/01/16 07:56:42;;;;;;;47.20;23.50;;;;;;;;;;754738;183;635505;-70
2021/01/16 07:59:22;;;;;;;47.10;22.70;;;;;;;;;;751785;184;618934;-71
2021/01/16 08:02:05;;;;;;;46.67;23.50;;;;;;;;;;754161;183;626529;-71
2021/01/16 08:04:43;;;;;;;35.97;21.10;;;;;;;;;;727853;188;636908;-71
2021/01/16 08:07:09;;;;;;;39.27;20.80;;;;;;;;;;755728;184;629997;-70
2021/01/16 08:09:45;;;;;;;32.83;17.47;;;;;;;;;;761079;183;622023;-71
2021/01/16 08:12:11;;;;;;;27.50;14.13;;;;;;;;;;755801;184;627561;-71
2021/01/16 08:14:37;;;;;;;25.40;15.07;;;;;;;;;;755003;183;655264;-70
2021/01/16 08:17:03;;;;;;;25.43;13.87;;;;;;;;;;756171;184;648408;-70
2021/01/16 08:19:32;;;;;;;28.87;14.67;;;;;;;;;;755736;183;624269;-71
2021/01/16 08:21:58;;;;;;;21.90;13.27;;;;;;;;;;752797;186;632260;-70
2021/01/16 08:24:27;;;;;;;24.40;13.57;;;;;;;;;;761261;183;617300;-70
2021/01/16 08:26:56;;;;;;;28.90;13.13;;;;;;;;;;757713;184;623903;-70
2021/01/16 08:29:22;;;;;;;28.43;13.97;;;;;;;;;;759096;184;632882;-70
2021/01/16 08:31:48;;;;;;;27.80;14.70;;;;;;;;;;754951;184;651241;-70
2021/01/16 08:34:20;;;;;;;25.47;13.80;;;;;;;;;;755474;183;624206;-70
2021/01/16 08:36:46;;;;;;;24.33;15.10;;;;;;;;;;752693;183;919112;-70
2021/01/16 08:39:17;;;;;;;31.93;17.73;;;;;;;;;;759088;185;631533;-70
2021/01/16 08:41:43;;;;;;;35.93;20.60;;;;;;;;;;754503;184;646146;-70
2021/01/16 08:44:09;;;;;;;36.13;20.10;;;;;;;;;;754738;185;640286;-69
2021/01/16 08:46:35;;;;;;;40.47;21.17;;;;;;;;;;753227;184;628335;-70
2021/01/16 08:49:03;;;;;;;39.03;21.27;;;;;;;;;;750949;185;624695;-71
2021/01/16 08:51:31;;;;;;;36.60;21.57;;;;;;;;;;751125;184;641461;-71
2021/01/16 08:54:02;;;;;;;39.13;19.53;;;;;;;;;;754986;184;638795;-70
2021/01/16 08:56:28;;;;;;;33.70;17.77;;;;;;;;;;753554;183;1073855;-70
2021/01/16 08:58:54;;;;;;;41.63;23.07;;;;;;;;;;742398;187;626001;-70
2021/01/16 09:01:20;;;;;;;52.10;22.43;;;;;;;;;;751479;184;659484;-71
2021/01/16 09:03:46;;;;;;;35.47;19.90;;;;;;;;;;756593;184;627879;-71
2021/01/16 09:06:12;;;;;;;45.87;25.20;;;;;;;;;;756826;184;628725;-70
2021/01/16 09:08:38;;;;;;;45.40;23.53;;;;;;;;;;751409;184;625728;-70
2021/01/16 09:11:10;;;;;;;43.30;23.50;;;;;;;;;;753614;185;636326;-70
2021/01/16 09:13:36;;;;;;;49.43;25.73;;;;;;;;;;758617;184;624481;-70
2021/01/16 09:16:01;;;;;;;45.17;25.60;;;;;;;;;;752797;184;649386;-70
2021/01/16 09:18:28;;;;;;;43.13;25.70;;;;;;;;;;754256;184;638583;-71
2021/01/16 09:20:56;;;;;;;48.40;23.33;;;;;;;;;;757668;182;629121;-70
2021/01/16 09:23:22;;;;;;;39.57;22.50;;;;;;;;;;755233;183;619384;-70
2021/01/16 09:25:50;;;;;;;37.87;20.40;;;;;;;;;;754479;184;627666;-72
2021/01/16 09:28:17;;;;;;;39.40;21.17;;;;;;;;;;756449;183;636544;-71
2021/01/16 09:30:42;;;;;;;32.60;19.67;;;;;;;;;;759755;183;617623;-71
2021/01/16 09:33:14;;;;;;;34.17;18.47;;;;;;;;;;751915;183;653082;-71
2021/01/16 09:35:40;;;;;;;31.20;16.90;;;;;;;;;;753384;183;669739;-72
2021/01/16 09:38:12;;;;;;;34.10;18.37;;;;;;;;;;752660;184;742690;-72
2021/01/16 09:40:38;;;;;;;26.00;16.30;;;;;;;;;;756626;184;682127;-71
2021/01/16 09:43:09;;;;;;;31.93;15.37;;;;;;;;;;755276;184;774206;-72
2021/01/16 09:45:35;;;;;;;16.70;10.83;;;;;;;;;;757796;184;633950;-72
2021/01/16 09:48:01;;;;;;;12.77;6.73;;;;;;;;;;751005;184;637108;-72
2021/01/16 09:50:27;;;;;;;9.07;6.23;;;;;;;;;;759890;184;619102;-72
2021/01/16 09:52:54;;;;;;;11.43;6.30;;;;;;;;;;753580;184;636645;-70
2021/01/16 09:55:20;;;;;;;15.00;7.20;;;;;;;;;;757436;184;621890;-71
2021/01/16 09:57:46;;;;;;;9.43;6.47;;;;;;;;;;759017;184;626439;-71
2021/01/16 10:00:17;;;;;;;11.27;6.53;;;;;;;;;;752293;184;653198;-71
2021/01/16 10:02:43;;;;;;;12.10;7.43;;;;;;;;;;755910;184;637694;-71
2021/01/16 10:05:10;;;;;;;12.53;6.20;;;;;;;;;;754615;183;628325;-71
2021/01/16 10:07:38;;;;;;;13.13;7.83;;;;;;;;;;756025;183;639711;-71
2021/01/16 10:10:12;;;;;;;12.53;6.93;;;;;;;;;;750080;184;618846;-72
2021/01/16 10:12:38;;;;;;;14.90;7.00;;;;;;;;;;754950;184;669366;-71
2021/01/16 10:15:06;;;;;;;10.60;7.37;;;;;;;;;;752609;184;627058;-71
2021/01/16 10:17:32;;;;;;;8.70;6.27;;;;;;;;;;755799;184;640149;-71
2021/01/16 10:20:07;;;;;;;9.67;7.27;;;;;;;;;;733182;188;638669;-71
2021/01/16 10:22:33;;;;;;;13.97;7.30;;;;;;;;;;754625;184;632519;-70
2021/01/16 10:24:59;;;;;;;13.70;6.53;;;;;;;;;;750159;185;1207314;-71
2021/01/16 10:27:30;;;;;;;13.27;8.13;;;;;;;;;;759636;184;664154;-69
2021/01/16 10:29:56;;;;;;;11.43;7.00;;;;;;;;;;752029;185;629668;-71
2021/01/16 10:32:22;;;;;;;12.07;7.10;;;;;;;;;;752766;183;616898;-71
2021/01/16 10:34:49;;;;;;;12.77;6.40;;;;;;;;;;755451;182;638573;-69
2021/01/16 10:37:15;;;;;;;10.63;7.57;;;;;;;;;;761315;183;639353;-70
2021/01/16 10:39:41;;;;;;;12.52;6.15;;;;;;;;;;756354;183;622284;-69
2021/01/16 10:42:11;;;;;;;14.97;7.60;;;;;;;;;;754192;184;629324;-70
2021/01/16 10:44:37;;;;;;;13.27;6.30;;;;;;;;;;760376;184;627003;-69
2021/01/16 10:47:03;;;;;;;12.10;7.10;;;;;;;;;;757596;184;629111;-70
2021/01/16 10:49:29;;;;;;;12.50;7.13;;;;;;;;;;758613;184;624948;-71
2021/01/16 10:51:55;;;;;;;9.93;4.80;;;;;;;;;;753788;184;663094;-70
2021/01/16 10:54:21;;;;;;;11.93;5.90;;;;;;;;;;756116;183;623342;-70
2021/01/16 10:56:52;;;;;;;10.37;6.10;;;;;;;;;;752456;184;631324;-69
2021/01/16 10:59:18;;;;;;;8.10;6.23;;;;;;;;;;756710;185;622794;-70
2021/01/16 11:01:44;;;;;;;12.33;7.23;;;;;;;;;;756934;184;628948;-70
2021/01/16 11:04:10;;;;;;;8.30;5.70;;;;;;;;;;759123;183;628116;-69
2021/01/16 11:06:36;;;;;;;10.87;6.00;;;;;;;;;;751405;184;634427;-69
2021/01/16 11:09:02;;;;;;;11.60;7.13;;;;;;;;;;752196;184;622515;-68
2021/01/16 11:11:29;;;;;;;12.77;7.20;;;;;;;;;;757723;184;625055;-71
2021/01/16 11:13:54;;;;;;;12.20;7.80;;;;;;;;;;752605;184;623883;-69
2021/01/16 11:16:22;;;;;;;11.47;7.07;;;;;;;;;;751784;184;634716;-70
2021/01/16 11:18:46;;;;;;;8.70;6.37;;;;;;;;;;760824;184;642117;-70
2021/01/16 11:21:13;;;;;;;14.83;8.37;;;;;;;;;;750356;182;625518;-71
2021/01/16 11:23:38;;;;;;;12.90;8.20;;;;;;;;;;751246;185;635502;-70
2021/01/16 11:26:05;;;;;;;12.13;7.50;;;;;;;;;;754886;185;623685;-70
2021/01/16 11:28:31;;;;;;;11.30;6.53;;;;;;;;;;753347;183;645024;-69
2021/01/16 11:31:02;;;;;;;9.00;6.50;;;;;;;;;;750919;184;906283;-68
2021/01/16 11:33:28;;;;;;;13.20;7.20;;;;;;;;;;749685;184;1310425;-70
2021/01/16 11:35:54;;;;;;;11.27;6.82;;;;;;;;;;759766;184;629716;-70
2021/01/16 11:38:26;;;;;;;9.40;6.60;;;;;;;;;;755689;184;652087;-68
2021/01/16 11:40:51;;;;;;;8.63;4.60;;;;;;;;;;753819;184;618237;-69
2021/01/16 11:43:17;;;;;;;13.40;8.10;;;;;;;;;;756388;182;627556;-69
2021/01/16 11:45:43;;;;;;;12.10;5.97;;;;;;;;;;754930;184;631598;-69
2021/01/16 11:48:09;;;;;;;14.93;7.43;;;;;;;;;;750473;183;625017;-69
2021/01/16 11:50:35;;;;;;;16.53;8.97;;;;;;;;;;757647;183;626044;-69
2021/01/16 11:53:13;;;;;;;9.90;6.17;;;;;;;;;;760086;184;635951;-68
2021/01/16 11:55:39;;;;;;;14.07;9.10;;;;;;;;;;757416;183;629452;-69
2021/01/16 11:58:04;;;;;;;8.43;5.87;;;;;;;;;;753924;184;635473;-69
2021/01/16 12:00:30;;;;;;;10.50;7.47;;;;;;;;;;757220;184;627078;-69
2021/01/16 12:02:57;;;;;;;10.47;6.30;;;;;;;;;;758543;185;630234;-69
2021/01/16 12:05:23;;;;;;;11.33;7.27;;;;;;;;;;756405;184;632852;-69
2021/01/16 12:07:51;;;;;;;10.13;6.17;;;;;;;;;;750131;184;678088;-70
2021/01/16 12:10:17;;;;;;;8.27;5.60;;;;;;;;;;752921;185;635933;-68
2021/01/16 12:12:43;;;;;;;9.50;5.17;;;;;;;;;;753137;184;630580;-68
2021/01/16 12:15:24;;;;;;;12.77;6.50;;;;;;;;;;734125;187;678038;-69
2021/01/16 12:17:50;;;;;;;9.10;6.17;;;;;;;;;;746394;185;698190;-69
2021/01/16 12:20:16;;;;;;;10.80;6.70;;;;;;;;;;753843;184;993719;-68
2021/01/16 12:22:43;;;;;;;8.68;6.00;;;;;;;;;;755914;184;798912;-69
2021/01/16 12:25:09;;;;;;;10.27;7.10;;;;;;;;;;755350;184;618763;-69
2021/01/16 12:27:35;;;;;;;12.43;9.30;;;;;;;;;;755272;184;656469;-69
2021/01/16 12:30:01;;;;;;;10.60;6.93;;;;;;;;;;755050;183;631949;-69
2021/01/16 12:32:27;;;;;;;8.63;6.40;;;;;;;;;;753349;183;633190;-69
2021/01/16 12:34:52;;;;;;;11.52;8.02;;;;;;;;;;754372;184;620399;-69
2021/01/16 12:37:24;;;;;;;13.93;6.63;;;;;;;;;;757697;184;642480;-68
2021/01/16 12:39:50;;;;;;;9.33;6.10;;;;;;;;;;738177;187;639161;-69
2021/01/16 12:42:16;;;;;;;12.60;7.30;;;;;;;;;;755202;184;627616;-68
2021/01/16 12:44:42;;;;;;;14.55;7.15;;;;;;;;;;749346;184;928081;-68
2021/01/16 12:47:08;;;;;;;8.83;6.33;;;;;;;;;;759812;185;653086;-68
2021/01/16 12:49:35;;;;;;;10.37;6.30;;;;;;;;;;756309;184;624940;-68
2021/01/16 12:52:01;;;;;;;9.90;6.37;;;;;;;;;;754212;184;633481;-68
2021/01/16 12:54:27;;;;;;;9.63;6.53;;;;;;;;;;756800;181;623413;-68
2021/01/16 12:56:53;;;;;;;12.17;5.63;;;;;;;;;;756705;183;630967;-68
2021/01/16 12:59:19;;;;;;;11.67;5.30;;;;;;;;;;751810;184;651038;-68
2021/01/16 13:01:45;;;;;;;13.20;8.00;;;;;;;;;;757465;183;630351;-69
2021/01/16 13:04:11;;;;;;;10.80;6.60;;;;;;;;;;738843;187;616079;-69
2021/01/16 13:06:37;;;;;;;13.50;7.23;;;;;;;;;;747625;183;1328247;-68
2021/01/16 13:09:03;;;;;;;11.20;6.70;;;;;;;;;;754665;183;633179;-68
2021/01/16 13:11:28;;;;;;;9.13;6.50;;;;;;;;;;757482;183;642517;-67
2021/01/16 13:13:55;;;;;;;11.50;6.83;;;;;;;;;;757009;184;621862;-69
2021/01/16 13:16:20;;;;;;;19.33;7.72;;;;;;;;;;754307;184;639962;-69
2021/01/16 13:18:46;;;;;;;10.10;5.93;;;;;;;;;;755986;185;621004;-68
2021/01/16 13:21:12;;;;;;;11.20;6.73;;;;;;;;;;751977;184;648282;-68
2021/01/16 13:23:38;;;;;;;9.13;6.70;;;;;;;;;;755798;184;631972;-67
2021/01/16 13:26:04;;;;;;;8.33;5.83;;;;;;;;;;757888;184;637281;-69
2021/01/16 13:28:31;;;;;;;8.50;6.57;;;;;;;;;;748616;184;1773165;-69
2021/01/16 13:30:59;;;;;;;7.30;4.87;;;;;;;;;;752661;184;621526;-69
2021/01/16 13:33:24;;;;;;;9.43;5.60;;;;;;;;;;751069;185;623720;-69
2021/01/16 13:35:50;;;;;;;7.83;4.87;;;;;;;;;;754018;185;628969;-70
2021/01/16 13:38:16;;;;;;;17.07;6.10;;;;;;;;;;754383;184;630912;-69
2021/01/16 13:40:42;;;;;;;11.27;6.63;;;;;;;;;;756709;184;622205;-69
2021/01/16 13:43:08;;;;;;;10.77;7.60;;;;;;;;;;755209;185;628382;-69
2021/01/16 13:45:34;;;;;;;11.73;6.30;;;;;;;;;;753609;184;644514;-69
2021/01/16 13:48:01;;;;;;;15.57;8.17;;;;;;;;;;752057;184;690223;-69
2021/01/16 13:50:26;;;;;;;11.30;7.37;;;;;;;;;;758688;185;620684;-69
2021/01/16 13:52:52;;;;;;;10.53;5.53;;;;;;;;;;752075;184;633812;-70
2021/01/16 13:55:18;;;;;;;13.20;6.10;;;;;;;;;;749333;183;1444529;-70
2021/01/16 13:57:45;;;;;;;11.53;6.30;;;;;;;;;;749772;184;913474;-70
2021/01/16 14:00:12;;;;;;;11.90;6.33;;;;;;;;;;755700;185;717941;-70
2021/01/16 14:02:38;;;;;;;10.90;6.90;;;;;;;;;;753136;184;638351;-70
2021/01/16 14:05:04;;;;;;;10.87;6.10;;;;;;;;;;754610;185;640807;-69
2021/01/16 14:07:31;;;;;;;10.40;5.63;;;;;;;;;;759284;183;634708;-70
2021/01/16 14:09:56;;;;;;;12.67;7.47;;;;;;;;;;746687;183;1622956;-69